< < Back
Terminal Aerodrome Forecast


Current Version              Previous Versions:   1  2  3  4  5  6  7  8  9  

Terminal Aerodrome Forecast

326
FTUS42 KGSP 011740
TAFHKY
TAF
KHKY 011740Z 0118/0218 20011G17KT P6SM BKN120
     FM012200 18009KT P6SM BKN040
     FM020000 18007KT P6SM -SHRA OVC015
     FM020200 18006KT 3SM -SHRA OVC008
     FM020600 20010G17KT 2SM -SHRA BR OVC003
     FM021200 23012G22KT P6SM OVC030
     FM021400 26015G25KT P6SM BKN070=



Latest METAR

099
SAUS70 KWBC 012200 RRX
MTRHKY
METAR KHKY 012153Z AUTO 00000KT 10SM -RA BKN035 OVC070 09/02 A2999 RMK
AO2 RAB18 SLP149 P0000 T00890022


USA.gov is the U.S. government's official web portal to all federal, state and local government web resources and services.